createdAt,value
2023-04-14T00:01:05.006Z,96475.66
2023-04-14T00:03:32.157Z,96485.16
2023-04-14T00:05:58.908Z,96476.69
2023-04-14T00:08:25.567Z,96451.06
2023-04-14T00:10:52.228Z,96431.69
2023-04-14T00:13:18.947Z,96426.66
2023-04-14T00:15:45.963Z,96448.19
2023-04-14T00:18:12.612Z,96442.53
2023-04-14T00:20:39.335Z,96439.22
2023-04-14T00:23:05.991Z,96442.72
2023-04-14T00:25:32.661Z,96434.19
2023-04-14T00:27:59.334Z,96414.69
2023-04-14T00:30:26.024Z,96417.16
2023-04-14T00:32:52.766Z,96414.88
2023-04-14T00:35:19.500Z,96412.13
2023-04-14T00:37:46.181Z,96414.94
2023-04-14T00:40:12.958Z,96401.72
2023-04-14T00:42:43.440Z,96417.31
2023-04-14T00:45:10.524Z,96403.47
2023-04-14T00:47:37.741Z,96408.09
2023-04-14T00:50:04.855Z,96407.31
2023-04-14T00:52:31.981Z,96394.19
2023-04-14T00:54:58.853Z,96405.31
2023-04-14T00:57:26.016Z,96402.53
2023-04-14T00:59:52.889Z,96385.72
2023-04-14T01:02:19.765Z,96390.50
2023-04-14T01:04:54.209Z,96388.41
2023-04-14T01:07:21.927Z,96396.22
2023-04-14T01:09:48.621Z,96402.78
2023-04-14T01:12:35.532Z,96404.91
2023-04-14T01:15:25.598Z,96411.00
2023-04-14T01:17:54.826Z,96421.75
2023-04-14T01:20:23.272Z,96422.25
2023-04-14T01:23:05.313Z,96428.44
2023-04-14T01:25:38.445Z,96431.34
2023-04-14T01:28:23.262Z,96430.28
2023-04-14T01:31:02.219Z,96435.13
2023-04-14T01:33:28.909Z,96434.22
2023-04-14T01:35:59.312Z,96436.78
2023-04-14T01:38:27.601Z,96443.72
2023-04-14T01:40:55.484Z,96442.34
2023-04-14T01:43:23.236Z,96449.34
2023-04-14T01:45:51.108Z,96453.56
2023-04-14T01:48:17.812Z,96454.03
2023-04-14T01:50:44.471Z,96463.16
2023-04-14T01:53:11.933Z,96475.34
2023-04-14T01:55:38.626Z,96473.06
2023-04-14T01:58:06.023Z,96469.63
2023-04-14T02:00:33.540Z,96469.41
2023-04-14T02:03:00.429Z,96467.81
2023-04-14T02:05:27.287Z,96464.69
2023-04-14T02:07:53.925Z,96466.38
2023-04-14T02:10:21.023Z,96469.41
2023-04-14T02:12:48.414Z,96481.31
2023-04-14T02:15:17.428Z,96469.38
2023-04-14T02:17:44.751Z,96467.94
2023-04-14T02:20:11.616Z,96473.63
2023-04-14T02:22:38.315Z,96458.88
2023-04-14T02:25:05.124Z,96454.22
2023-04-14T02:27:34.411Z,96433.66
2023-04-14T02:30:01.146Z,96429.47
2023-04-14T02:32:30.245Z,96430.97
2023-04-14T02:35:13.953Z,96420.84
2023-04-14T02:37:49.318Z,96412.75
2023-04-14T02:40:17.900Z,96418.03
2023-04-14T02:42:45.998Z,96419.88
2023-04-14T02:45:13.495Z,96415.31
2023-04-14T02:47:41.820Z,96417.41
2023-04-14T02:50:09.611Z,96409.19
2023-04-14T02:52:36.368Z,96407.78
2023-04-14T02:55:03.064Z,96400.91
2023-04-14T02:57:29.974Z,96405.84
2023-04-14T02:59:57.474Z,96402.22
2023-04-14T03:02:24.200Z,96390.31
2023-04-14T03:04:50.908Z,96385.34
2023-04-14T03:07:17.587Z,96379.00
2023-04-14T03:09:44.764Z,96364.31
2023-04-14T03:12:13.002Z,96357.31
2023-04-14T03:14:40.129Z,96353.00
2023-04-14T03:17:06.771Z,96348.13
2023-04-14T03:19:34.044Z,96328.34
2023-04-14T03:22:01.106Z,96336.97
2023-04-14T03:24:31.104Z,96330.31
2023-04-14T03:26:59.826Z,96337.94
2023-04-14T03:29:27.466Z,96345.19
2023-04-14T03:31:54.917Z,96334.97
2023-04-14T03:34:21.551Z,96331.06
2023-04-14T03:36:48.940Z,96354.03
2023-04-14T03:39:15.845Z,96353.78
2023-04-14T03:41:47.860Z,96342.63
2023-04-14T03:44:16.434Z,96343.28
2023-04-14T03:46:43.159Z,96344.31
2023-04-14T03:49:11.641Z,96347.25
2023-04-14T03:51:39.225Z,96363.16
2023-04-14T03:54:06.293Z,96366.63
2023-04-14T03:56:33.516Z,96368.69
2023-04-14T03:59:00.727Z,96376.81
2023-04-14T04:01:28.068Z,96379.34
2023-04-14T04:03:55.026Z,96381.37
2023-04-14T04:06:21.884Z,96395.97
2023-04-14T04:08:48.955Z,96394.25
2023-04-14T04:11:18.971Z,96381.66
2023-04-14T04:13:45.851Z,96377.47
2023-04-14T04:16:12.494Z,96383.44
2023-04-14T04:18:39.228Z,96384.62
2023-04-14T04:21:06.272Z,96381.84
2023-04-14T04:23:33.335Z,96381.50
2023-04-14T04:26:00.038Z,96371.88
2023-04-14T04:28:27.042Z,96375.81
2023-04-14T04:30:53.724Z,96370.84
2023-04-14T04:33:20.582Z,96378.38
2023-04-14T04:35:47.281Z,96381.97
2023-04-14T04:38:15.116Z,96376.44
2023-04-14T04:40:42.016Z,96387.72
2023-04-14T04:43:08.699Z,96381.03
2023-04-14T04:45:44.610Z,96391.44
2023-04-14T04:48:11.376Z,96387.34
2023-04-14T04:50:38.099Z,96386.59
2023-04-14T04:53:04.852Z,96396.66
2023-04-14T04:55:31.604Z,96393.75
2023-04-14T04:57:58.311Z,96405.72
2023-04-14T05:00:26.378Z,96414.59
2023-04-14T05:02:53.234Z,96413.38
2023-04-14T05:05:19.979Z,96415.62
2023-04-14T05:07:47.051Z,96423.38
2023-04-14T05:10:13.702Z,96430.31
2023-04-14T05:12:40.496Z,96430.19
2023-04-14T05:15:08.732Z,96423.19
2023-04-14T05:17:35.487Z,96432.66
2023-04-14T05:20:02.807Z,96429.94
2023-04-14T05:22:29.674Z,96433.09
2023-04-14T05:24:56.340Z,96427.97
2023-04-14T05:27:23.078Z,96431.47
2023-04-14T05:29:49.730Z,96428.69
2023-04-14T05:32:16.481Z,96425.50
2023-04-14T05:34:43.162Z,96429.34
2023-04-14T05:37:09.900Z,96423.41
2023-04-14T05:39:36.582Z,96417.19
2023-04-14T05:42:03.241Z,96406.03
2023-04-14T05:44:29.951Z,96389.38
2023-04-14T05:46:56.766Z,96377.19
2023-04-14T05:51:27.876Z,96354.25
2023-04-14T05:53:55.213Z,96354.25
2023-04-14T05:56:22.076Z,96348.84
2023-04-14T05:58:48.973Z,96365.78
2023-04-14T06:01:15.879Z,96404.06
2023-04-14T06:03:42.897Z,96397.53
2023-04-14T06:06:10.013Z,96389.25
2023-04-14T06:08:37.948Z,96394.56
2023-04-14T06:11:04.955Z,96376.12
2023-04-14T06:13:34.839Z,96364.56
2023-04-14T06:16:03.172Z,96369.53
2023-04-14T06:18:30.212Z,96386.63
2023-04-14T06:20:57.063Z,96404.69
2023-04-14T06:23:24.790Z,96399.69
2023-04-14T06:25:52.499Z,96404.81
2023-04-14T06:28:24.024Z,96394.47
2023-04-14T06:30:51.185Z,96405.47
2023-04-14T06:33:18.156Z,96392.34
2023-04-14T06:35:45.296Z,96375.16
2023-04-14T06:38:12.162Z,96377.06
2023-04-14T06:40:38.825Z,96370.06
2023-04-14T06:43:07.820Z,96384.34
2023-04-14T06:45:34.733Z,96394.84
2023-04-14T06:48:01.656Z,96383.97
2023-04-14T06:50:28.657Z,96389.81
2023-04-14T06:52:55.669Z,96385.91
2023-04-14T06:55:22.536Z,96379.28
2023-04-14T06:57:49.401Z,96359.06
2023-04-14T07:00:16.658Z,96365.91
2023-04-14T07:02:43.876Z,96361.41
2023-04-14T07:05:10.867Z,96359.00
2023-04-14T07:07:40.178Z,96350.31
2023-04-14T07:10:07.541Z,96354.28
2023-04-14T07:12:34.472Z,96358.41
2023-04-14T07:15:01.134Z,96361.81
2023-04-14T07:17:28.111Z,96362.19
2023-04-14T07:19:55.091Z,96364.53
2023-04-14T07:22:21.934Z,96367.09
2023-04-14T07:24:48.644Z,96355.50
2023-04-14T07:27:15.955Z,96357.94
2023-04-14T07:29:43.239Z,96348.22
2023-04-14T07:32:10.256Z,96348.72
2023-04-14T07:34:37.280Z,96347.59
2023-04-14T07:37:04.228Z,96340.88
2023-04-14T07:39:31.415Z,96338.09
2023-04-14T07:41:58.933Z,96341.16
2023-04-14T07:44:26.468Z,96341.78
2023-04-14T07:46:53.636Z,96343.66
2023-04-14T07:49:20.548Z,96343.56
2023-04-14T07:51:47.710Z,96340.31
2023-04-14T07:54:15.298Z,96347.34
2023-04-14T07:56:42.245Z,96352.34
2023-04-14T07:59:09.119Z,96351.19
2023-04-14T08:01:36.038Z,96347.69
2023-04-14T08:04:03.192Z,96357.28
2023-04-14T08:06:30.271Z,96353.53
2023-04-14T08:08:57.176Z,96344.78
2023-04-14T08:11:24.156Z,96345.84
2023-04-14T08:13:53.095Z,96354.06
2023-04-14T08:16:20.053Z,96355.22
2023-04-14T08:18:47.441Z,96351.38
2023-04-14T08:21:14.410Z,96348.09
2023-04-14T08:23:41.396Z,96346.03
2023-04-14T08:26:08.363Z,96348.63
2023-04-14T08:28:35.370Z,96356.47
2023-04-14T08:31:02.226Z,96363.19
2023-04-14T08:33:29.218Z,96366.22
2023-04-14T08:36:00.322Z,96365.03
2023-04-14T08:38:28.956Z,96367.03
2023-04-14T08:40:56.999Z,96378.25
2023-04-14T08:43:23.966Z,96378.41
2023-04-14T08:45:51.991Z,96388.53
2023-04-14T08:48:21.643Z,96395.34
2023-04-14T08:51:24.070Z,96396.59
2023-04-14T08:53:52.878Z,96396.97
2023-04-14T08:56:21.642Z,96397.13
2023-04-14T08:58:48.599Z,96399.91
2023-04-14T09:01:15.924Z,96403.19
2023-04-14T09:03:44.197Z,96398.94
2023-04-14T09:06:11.618Z,96394.97
2023-04-14T09:08:38.510Z,96393.22
2023-04-14T09:11:05.526Z,96394.25
2023-04-14T09:13:32.467Z,96400.31
2023-04-14T09:16:00.287Z,96398.56
2023-04-14T09:18:28.320Z,96404.00
2023-04-14T09:21:34.344Z,96399.38
2023-04-14T09:23:42.960Z,96396.78
2023-04-14T09:26:10.727Z,96393.28
2023-04-14T09:28:38.076Z,96391.41
2023-04-14T09:31:05.437Z,96396.22
2023-04-14T09:33:32.730Z,96397.59
2023-04-14T09:35:59.700Z,96394.31
2023-04-14T09:38:39.300Z,96398.22
2023-04-14T09:41:06.890Z,96396.66
2023-04-14T09:43:34.258Z,96391.88
2023-04-14T09:46:08.897Z,96399.84
2023-04-14T09:48:37.788Z,96393.38
2023-04-14T09:51:06.848Z,96390.91
2023-04-14T09:53:35.840Z,96391.78
2023-04-14T09:56:06.157Z,96396.00
2023-04-14T09:58:37.944Z,96400.47
2023-04-14T10:01:13.207Z,96401.34
2023-04-14T10:03:42.469Z,96397.47
2023-04-14T10:06:22.890Z,96394.00
2023-04-14T10:08:57.250Z,96396.34
2023-04-14T10:11:29.912Z,96398.19
2023-04-14T10:14:06.837Z,96404.09
2023-04-14T10:16:34.211Z,96409.66
2023-04-14T10:19:02.317Z,96415.75
2023-04-14T10:21:29.751Z,96420.59
2023-04-14T10:23:58.038Z,96429.34
2023-04-14T10:26:25.584Z,96428.91
2023-04-14T10:28:54.649Z,96433.97
2023-04-14T10:31:25.593Z,96437.78
2023-04-14T10:33:53.237Z,96443.63
2023-04-14T10:36:24.999Z,96451.78
2023-04-14T10:39:02.211Z,96452.88
2023-04-14T10:41:38.228Z,96464.03
2023-04-14T10:44:05.149Z,96470.00
2023-04-14T10:46:44.562Z,96464.59
2023-04-14T10:49:14.397Z,96476.50
2023-04-14T10:51:41.999Z,96479.63
2023-04-14T10:54:19.460Z,96477.47
2023-04-14T10:57:09.862Z,96478.03
2023-04-14T10:59:39.877Z,96487.00
2023-04-14T11:02:22.529Z,96482.34
2023-04-14T11:05:06.977Z,96476.84
2023-04-14T11:07:51.910Z,96484.22
2023-04-14T11:10:21.998Z,96487.63
2023-04-14T11:12:51.429Z,96490.06
2023-04-14T11:15:18.360Z,96490.16
2023-04-14T11:17:45.574Z,96490.62
2023-04-14T11:20:19.590Z,96497.81
2023-04-14T11:22:48.261Z,96501.66
2023-04-14T11:25:16.816Z,96495.28
2023-04-14T11:27:44.530Z,96509.56
2023-04-14T11:30:18.949Z,96512.22
2023-04-14T11:32:54.075Z,96504.66
2023-04-14T11:35:24.111Z,96507.53
2023-04-14T11:37:55.955Z,96509.75
2023-04-14T11:40:23.684Z,96503.81
2023-04-14T11:42:55.247Z,96500.69
2023-04-14T11:45:22.168Z,96512.56
2023-04-14T11:47:59.275Z,96502.06
2023-04-14T11:50:27.509Z,96511.13
2023-04-14T11:52:55.537Z,96508.81
2023-04-14T11:55:25.258Z,96506.91
2023-04-14T11:57:52.177Z,96513.19
2023-04-14T12:00:19.204Z,96508.31
2023-04-14T12:02:46.726Z,96499.72
2023-04-14T12:05:20.110Z,96497.00
2023-04-14T12:07:48.719Z,96492.31
2023-04-14T12:10:15.857Z,96484.34
2023-04-14T12:12:42.842Z,96482.00
2023-04-14T12:15:10.179Z,96482.31
2023-04-14T12:17:37.436Z,96475.62
2023-04-14T12:20:05.665Z,96486.94
2023-04-14T12:22:32.641Z,96488.06
2023-04-14T12:24:59.712Z,96479.56
2023-04-14T12:27:27.698Z,96488.91
2023-04-14T12:29:54.609Z,96479.66
2023-04-14T12:32:22.958Z,96479.78
2023-04-14T12:34:58.010Z,96470.59
2023-04-14T12:37:28.686Z,96463.56
2023-04-14T12:40:01.020Z,96466.19
2023-04-14T12:42:30.496Z,96462.41
2023-04-14T12:45:02.340Z,96472.56
2023-04-14T12:47:34.301Z,96477.38
2023-04-14T12:50:03.324Z,96478.00
2023-04-14T12:52:38.294Z,96490.53
2023-04-14T12:55:07.159Z,96490.16
2023-04-14T12:57:35.009Z,96489.84
2023-04-14T13:00:02.279Z,96510.37
2023-04-14T13:02:30.304Z,96506.50
2023-04-14T13:04:57.840Z,96502.06
2023-04-14T13:07:24.788Z,96489.19
2023-04-14T13:09:53.196Z,96487.81
2023-04-14T13:12:20.065Z,96483.91
2023-04-14T13:14:46.915Z,96493.50
2023-04-14T13:17:13.604Z,96487.53
2023-04-14T13:19:40.840Z,96495.00
2023-04-14T13:22:07.702Z,96494.09
2023-04-14T13:24:34.566Z,96498.06
2023-04-14T13:27:01.795Z,96507.84
2023-04-14T13:29:28.868Z,96506.03
2023-04-14T13:31:55.791Z,96517.44
2023-04-14T13:34:22.795Z,96509.25
2023-04-14T13:36:49.694Z,96516.41
2023-04-14T13:39:16.703Z,96512.03
2023-04-14T13:41:43.674Z,96508.47
2023-04-14T13:44:10.538Z,96525.47
2023-04-14T13:46:41.198Z,96529.78
2023-04-14T13:49:08.461Z,96532.97
2023-04-14T13:51:35.328Z,96533.16
2023-04-14T13:54:03.411Z,96541.53
2023-04-14T13:56:30.300Z,96536.72
2023-04-14T13:58:57.243Z,96535.28
2023-04-14T14:01:24.254Z,96538.75
2023-04-14T14:03:51.390Z,96533.50
2023-04-14T14:06:19.632Z,96535.63
2023-04-14T14:08:46.529Z,96527.25
2023-04-14T14:11:14.251Z,96531.63
2023-04-14T14:13:41.178Z,96531.06
2023-04-14T14:16:09.219Z,96548.25
2023-04-14T14:18:39.998Z,96542.75
2023-04-14T14:21:06.892Z,96549.78
2023-04-14T14:23:33.778Z,96553.97
2023-04-14T14:26:00.985Z,96566.06
2023-04-14T14:28:27.895Z,96557.63
2023-04-14T14:30:54.989Z,96559.09
2023-04-14T14:33:21.933Z,96563.31
2023-04-14T14:35:49.102Z,96573.75
2023-04-14T14:38:16.104Z,96577.16
2023-04-14T14:40:43.041Z,96580.97
2023-04-14T14:43:09.890Z,96580.81
2023-04-14T14:45:36.685Z,96592.47
2023-04-14T14:48:04.561Z,96594.78
2023-04-14T14:50:31.481Z,96603.06
2023-04-14T14:52:58.286Z,96601.97
2023-04-14T14:55:24.993Z,96616.03
2023-04-14T14:57:51.856Z,96616.44
2023-04-14T15:00:19.067Z,96622.53
2023-04-14T15:02:46.164Z,96637.03
2023-04-14T15:05:13.208Z,96632.81
2023-04-14T15:07:40.063Z,96639.47
2023-04-14T15:10:07.484Z,96637.28
2023-04-14T15:12:34.400Z,96643.62
2023-04-14T15:15:01.411Z,96644.53
2023-04-14T15:17:28.595Z,96654.03
2023-04-14T15:19:55.485Z,96657.56
2023-04-14T15:22:22.160Z,96654.78
2023-04-14T15:24:49.097Z,96650.69
2023-04-14T15:27:15.979Z,96661.47
2023-04-14T15:29:42.849Z,96666.94
2023-04-14T15:32:09.753Z,96663.56
2023-04-14T15:34:36.721Z,96675.34
2023-04-14T15:37:03.648Z,96672.13
2023-04-14T15:39:30.526Z,96664.03
2023-04-14T15:41:58.563Z,96666.12
2023-04-14T15:44:26.339Z,96669.31
2023-04-14T15:46:53.734Z,96667.53
2023-04-14T15:49:22.654Z,96672.50
2023-04-14T15:51:50.591Z,96670.75
2023-04-14T15:54:17.478Z,96667.56
2023-04-14T15:56:44.434Z,96677.56
2023-04-14T15:59:11.374Z,96680.59
2023-04-14T16:01:38.293Z,96687.81
2023-04-14T16:04:05.534Z,96687.13
2023-04-14T16:06:32.745Z,96697.78
2023-04-14T16:08:59.827Z,96695.44
2023-04-14T16:11:27.013Z,96697.22
2023-04-14T16:13:54.492Z,96693.03
2023-04-14T16:16:21.948Z,96697.84
2023-04-14T16:18:49.768Z,96697.53
2023-04-14T16:21:16.973Z,96701.72
2023-04-14T16:23:43.977Z,96700.09
2023-04-14T16:26:10.882Z,96697.50
2023-04-14T16:28:37.805Z,96700.16
2023-04-14T16:31:04.942Z,96696.59
2023-04-14T16:33:32.854Z,96696.59
2023-04-14T16:36:06.614Z,96703.47
2023-04-14T16:38:33.751Z,96695.13
2023-04-14T16:41:01.565Z,96699.94
2023-04-14T16:43:28.782Z,96702.63
2023-04-14T16:46:05.781Z,96696.44
2023-04-14T16:48:33.442Z,96698.34
2023-04-14T16:51:08.488Z,96695.59
2023-04-14T16:53:36.704Z,96696.31
2023-04-14T16:56:10.539Z,96693.53
2023-04-14T16:58:38.377Z,96697.56
2023-04-14T17:01:06.427Z,96704.75
2023-04-14T17:03:34.257Z,96699.50
2023-04-14T17:06:01.484Z,96704.28
2023-04-14T17:08:28.532Z,96700.31
2023-04-14T17:10:55.521Z,96709.41
2023-04-14T17:13:22.383Z,96718.84
2023-04-14T17:15:58.797Z,96715.16
2023-04-14T17:18:33.690Z,96720.00
2023-04-14T17:21:00.559Z,96723.19
2023-04-14T17:23:27.516Z,96727.50
2023-04-14T17:25:55.528Z,96728.12
2023-04-14T17:28:22.961Z,96727.31
2023-04-14T17:30:50.353Z,96729.75
2023-04-14T17:33:17.574Z,96732.25
2023-04-14T17:35:44.550Z,96726.88
2023-04-14T17:38:11.498Z,96726.63
2023-04-14T17:40:38.379Z,96724.41
2023-04-14T17:43:05.327Z,96724.56
2023-04-14T17:45:33.904Z,96729.13
2023-04-14T17:48:00.889Z,96734.88
2023-04-14T17:53:03.129Z,96745.28
2023-04-14T17:55:30.030Z,96742.91
2023-04-14T17:57:57.854Z,96748.84
2023-04-14T18:00:24.784Z,96749.69
2023-04-14T18:02:52.299Z,96757.31
2023-04-14T18:05:19.214Z,96759.25
2023-04-14T18:07:47.059Z,96757.47
2023-04-14T18:10:13.891Z,96761.16
2023-04-14T18:12:40.826Z,96759.81
2023-04-14T18:15:08.130Z,96766.06
2023-04-14T18:17:36.634Z,96772.19
2023-04-14T18:20:04.376Z,96764.03
2023-04-14T18:22:31.749Z,96766.97
2023-04-14T18:24:58.658Z,96776.31
2023-04-14T18:29:56.430Z,96779.28
2023-04-14T18:32:25.508Z,96772.22
2023-04-14T18:34:52.793Z,96776.34
2023-04-14T18:37:19.791Z,96772.62
2023-04-14T18:39:46.700Z,96773.94
2023-04-14T18:42:14.080Z,96779.38
2023-04-14T18:44:41.064Z,96785.81
2023-04-14T18:47:07.941Z,96793.06
2023-04-14T18:49:35.212Z,96783.56
2023-04-14T18:52:02.561Z,96793.00
2023-04-14T18:54:29.736Z,96784.28
2023-04-14T18:56:56.648Z,96784.91
2023-04-14T18:59:24.175Z,96781.12
2023-04-14T19:01:51.184Z,96780.41
2023-04-14T19:04:18.146Z,96783.50
2023-04-14T19:06:45.120Z,96785.94
2023-04-14T19:09:11.979Z,96784.81
2023-04-14T19:11:41.633Z,96785.56
2023-04-14T19:14:08.545Z,96777.13
2023-04-14T19:16:35.587Z,96781.50
2023-04-14T19:19:02.711Z,96786.91
2023-04-14T19:21:32.607Z,96787.94
2023-04-14T19:23:59.483Z,96781.88
2023-04-14T19:26:26.402Z,96791.25
2023-04-14T19:28:54.027Z,96786.34
2023-04-14T19:31:21.656Z,96788.94
2023-04-14T19:33:49.308Z,96796.66
2023-04-14T19:36:17.536Z,96796.97
2023-04-14T19:38:44.529Z,96793.06
2023-04-14T19:41:11.547Z,96792.75
2023-04-14T19:43:38.453Z,96792.00
2023-04-14T19:46:05.592Z,96796.81
2023-04-14T19:48:35.572Z,96793.19
2023-04-14T19:51:03.585Z,96791.16
2023-04-14T19:53:30.846Z,96792.00
2023-04-14T19:55:58.672Z,96787.28
2023-04-14T19:58:26.998Z,96791.56
2023-04-14T20:00:59.057Z,96792.56
2023-04-14T20:03:26.572Z,96789.47
2023-04-14T20:05:55.850Z,96785.53
2023-04-14T20:08:23.986Z,96790.06
2023-04-14T20:10:52.756Z,96784.25
2023-04-14T20:13:24.240Z,96789.72
2023-04-14T20:15:54.255Z,96790.00
2023-04-14T20:18:22.865Z,96794.63
2023-04-14T20:20:50.317Z,96798.91
2023-04-14T20:23:17.351Z,96799.31
2023-04-14T20:25:45.757Z,96807.56
2023-04-14T20:28:12.887Z,96801.47
2023-04-14T20:30:40.019Z,96799.72
2023-04-14T20:33:07.086Z,96798.94
2023-04-14T20:35:36.212Z,96798.69
2023-04-14T20:38:03.275Z,96807.59
2023-04-14T20:40:30.432Z,96810.78
2023-04-14T20:42:57.430Z,96810.31
2023-04-14T20:45:24.837Z,96813.47
2023-04-14T20:47:51.925Z,96815.16
2023-04-14T20:50:19.008Z,96812.41
2023-04-14T20:52:46.674Z,96819.06
2023-04-14T20:55:14.433Z,96829.00
2023-04-14T20:57:42.082Z,96822.06
2023-04-14T21:00:10.461Z,96822.34
2023-04-14T21:02:37.831Z,96823.03
2023-04-14T21:05:06.011Z,96825.00
2023-04-14T21:07:35.150Z,96829.72
2023-04-14T21:10:02.370Z,96829.03
2023-04-14T21:12:35.598Z,96831.09
2023-04-14T21:15:45.861Z,96827.22
2023-04-14T21:17:52.238Z,96829.72
2023-04-14T21:20:19.163Z,96821.19
2023-04-14T21:22:46.072Z,96824.94
2023-04-14T21:25:12.983Z,96825.38
2023-04-14T21:27:40.052Z,96825.47
2023-04-14T21:30:09.240Z,96827.03
2023-04-14T21:32:36.232Z,96832.50
2023-04-14T21:35:03.235Z,96835.88
2023-04-14T21:37:30.155Z,96824.84
2023-04-14T21:39:59.027Z,96829.06
2023-04-14T21:42:26.711Z,96835.63
2023-04-14T21:44:54.328Z,96834.66
2023-04-14T21:47:21.250Z,96836.56
2023-04-14T21:49:48.184Z,96837.25
2023-04-14T21:52:15.031Z,96831.75
2023-04-14T21:54:44.427Z,96835.03
2023-04-14T21:57:11.698Z,96832.78
2023-04-14T21:59:38.826Z,96833.81
2023-04-14T22:02:05.802Z,96836.00
2023-04-14T22:04:36.597Z,96842.34
2023-04-14T22:07:05.406Z,96830.72
2023-04-14T22:09:33.465Z,96832.44
2023-04-14T22:12:00.712Z,96834.19
2023-04-14T22:14:27.889Z,96833.44
2023-04-14T22:16:55.253Z,96830.56
2023-04-14T22:19:22.146Z,96827.19
2023-04-14T22:21:49.990Z,96832.41
2023-04-14T22:24:16.863Z,96837.22
2023-04-14T22:26:43.751Z,96838.09
2023-04-14T22:29:11.625Z,96834.97
2023-04-14T22:31:38.693Z,96832.94
2023-04-14T22:34:05.583Z,96830.34
2023-04-14T22:36:32.471Z,96832.38
2023-04-14T22:38:59.573Z,96837.13
2023-04-14T22:41:27.251Z,96833.59
2023-04-14T22:43:54.230Z,96829.66
2023-04-14T22:46:21.128Z,96833.34
2023-04-14T22:48:48.080Z,96833.22
2023-04-14T22:51:15.129Z,96835.38
2023-04-14T22:53:42.013Z,96839.00
2023-04-14T22:56:08.963Z,96834.75
2023-04-14T22:58:39.420Z,96845.69
2023-04-14T23:01:21.432Z,96850.84
2023-04-14T23:03:52.586Z,96848.66
2023-04-14T23:06:20.358Z,96848.75
2023-04-14T23:08:51.231Z,96838.47
2023-04-14T23:11:21.067Z,96842.53
2023-04-14T23:13:48.886Z,96849.00
2023-04-14T23:16:20.060Z,96847.25
2023-04-14T23:18:52.527Z,96854.06
2023-04-14T23:21:22.420Z,96854.13
2023-04-14T23:23:50.436Z,96865.03
2023-04-14T23:26:19.671Z,96858.19
2023-04-14T23:28:47.087Z,96858.94
2023-04-14T23:31:14.472Z,96849.81
2023-04-14T23:33:41.388Z,96848.06
2023-04-14T23:36:08.409Z,96843.13
2023-04-14T23:38:35.517Z,96848.31
2023-04-14T23:41:02.514Z,96846.41
2023-04-14T23:43:29.533Z,96850.91
2023-04-14T23:45:56.821Z,96856.53
2023-04-14T23:48:23.781Z,96854.53
2023-04-14T23:50:59.208Z,96853.53
2023-04-14T23:53:28.363Z,96848.41
2023-04-14T23:55:55.332Z,96849.97
2023-04-14T23:58:26.714Z,96853.19
